sensor_id;sensor_type;location;lat;lon;timestamp;P1;durP1;ratioP1;P2;durP2;ratioP2
7334;SDS011;3708;42.632;23.378;2023-08-06T00:01:07;4.43;;;3.60;;
7334;SDS011;3708;42.632;23.378;2023-08-06T00:03:34;5.30;;;3.53;;
7334;SDS011;3708;42.632;23.378;2023-08-06T00:06:01;4.93;;;3.27;;
7334;SDS011;3708;42.632;23.378;2023-08-06T00:08:28;3.50;;;3.20;;
7334;SDS011;3708;42.632;23.378;2023-08-06T00:10:56;4.40;;;3.10;;
7334;SDS011;3708;42.632;23.378;2023-08-06T00:13:23;4.40;;;3.70;;
7334;SDS011;3708;42.632;23.378;2023-08-06T00:15:50;5.37;;;3.80;;
7334;SDS011;3708;42.632;23.378;2023-08-06T00:18:16;4.33;;;3.30;;
7334;SDS011;3708;42.632;23.378;2023-08-06T00:20:43;3.83;;;3.23;;
7334;SDS011;3708;42.632;23.378;2023-08-06T00:23:10;3.80;;;3.40;;
7334;SDS011;3708;42.632;23.378;2023-08-06T00:25:37;5.73;;;3.20;;
7334;SDS011;3708;42.632;23.378;2023-08-06T00:28:06;6.27;;;4.13;;
7334;SDS011;3708;42.632;23.378;2023-08-06T00:30:32;6.40;;;3.53;;
7334;SDS011;3708;42.632;23.378;2023-08-06T00:32:59;4.33;;;3.03;;
7334;SDS011;3708;42.632;23.378;2023-08-06T00:35:26;4.47;;;3.27;;
7334;SDS011;3708;42.632;23.378;2023-08-06T00:37:53;3.60;;;3.03;;
7334;SDS011;3708;42.632;23.378;2023-08-06T00:40:22;2.70;;;2.50;;
7334;SDS011;3708;42.632;23.378;2023-08-06T00:42:53;3.73;;;2.73;;
7334;SDS011;3708;42.632;23.378;2023-08-06T00:45:23;3.27;;;2.97;;
7334;SDS011;3708;42.632;23.378;2023-08-06T00:47:51;3.97;;;3.30;;
7334;SDS011;3708;42.632;23.378;2023-08-06T00:50:18;3.60;;;3.20;;
7334;SDS011;3708;42.632;23.378;2023-08-06T00:52:47;3.20;;;2.90;;
7334;SDS011;3708;42.632;23.378;2023-08-06T00:55:14;5.93;;;3.40;;
7334;SDS011;3708;42.632;23.378;2023-08-06T00:57:41;4.53;;;3.20;;
7334;SDS011;3708;42.632;23.378;2023-08-06T01:00:08;4.13;;;3.20;;
7334;SDS011;3708;42.632;23.378;2023-08-06T01:02:37;3.47;;;2.87;;
7334;SDS011;3708;42.632;23.378;2023-08-06T01:05:05;3.77;;;3.37;;
7334;SDS011;3708;42.632;23.378;2023-08-06T01:07:35;4.27;;;3.20;;
7334;SDS011;3708;42.632;23.378;2023-08-06T01:10:14;4.43;;;3.80;;
7334;SDS011;3708;42.632;23.378;2023-08-06T01:12:50;4.83;;;3.40;;
7334;SDS011;3708;42.632;23.378;2023-08-06T01:15:24;3.73;;;3.20;;
7334;SDS011;3708;42.632;23.378;2023-08-06T01:17:58;5.53;;;3.83;;
7334;SDS011;3708;42.632;23.378;2023-08-06T01:20:28;5.17;;;3.10;;
7334;SDS011;3708;42.632;23.378;2023-08-06T01:22:56;4.27;;;3.67;;
7334;SDS011;3708;42.632;23.378;2023-08-06T01:25:25;6.13;;;3.50;;
7334;SDS011;3708;42.632;23.378;2023-08-06T01:27:56;5.03;;;3.73;;
7334;SDS011;3708;42.632;23.378;2023-08-06T01:30:31;5.10;;;3.33;;
7334;SDS011;3708;42.632;23.378;2023-08-06T01:33:01;5.90;;;3.57;;
7334;SDS011;3708;42.632;23.378;2023-08-06T01:35:32;6.13;;;3.73;;
7334;SDS011;3708;42.632;23.378;2023-08-06T01:38:00;6.00;;;4.10;;
7334;SDS011;3708;42.632;23.378;2023-08-06T01:40:28;5.00;;;4.50;;
7334;SDS011;3708;42.632;23.378;2023-08-06T01:42:55;4.73;;;4.23;;
7334;SDS011;3708;42.632;23.378;2023-08-06T01:45:22;5.10;;;4.50;;
7334;SDS011;3708;42.632;23.378;2023-08-06T01:47:49;6.73;;;4.00;;
7334;SDS011;3708;42.632;23.378;2023-08-06T01:50:17;4.57;;;3.33;;
7334;SDS011;3708;42.632;23.378;2023-08-06T01:52:45;5.43;;;4.07;;
7334;SDS011;3708;42.632;23.378;2023-08-06T01:55:12;5.43;;;4.13;;
7334;SDS011;3708;42.632;23.378;2023-08-06T01:57:39;4.93;;;4.43;;
7334;SDS011;3708;42.632;23.378;2023-08-06T02:00:06;5.77;;;4.37;;
7334;SDS011;3708;42.632;23.378;2023-08-06T02:02:34;5.40;;;4.77;;
7334;SDS011;3708;42.632;23.378;2023-08-06T02:05:02;9.00;;;4.73;;
7334;SDS011;3708;42.632;23.378;2023-08-06T02:07:29;7.30;;;4.63;;
7334;SDS011;3708;42.632;23.378;2023-08-06T02:09:57;6.97;;;5.47;;
7334;SDS011;3708;42.632;23.378;2023-08-06T02:12:24;5.67;;;5.07;;
7334;SDS011;3708;42.632;23.378;2023-08-06T02:14:52;9.13;;;5.30;;
7334;SDS011;3708;42.632;23.378;2023-08-06T02:17:19;6.33;;;5.47;;
7334;SDS011;3708;42.632;23.378;2023-08-06T02:19:46;7.70;;;5.47;;
7334;SDS011;3708;42.632;23.378;2023-08-06T02:22:13;7.20;;;5.07;;
7334;SDS011;3708;42.632;23.378;2023-08-06T02:24:39;5.80;;;4.57;;
7334;SDS011;3708;42.632;23.378;2023-08-06T02:27:08;9.77;;;5.77;;
7334;SDS011;3708;42.632;23.378;2023-08-06T02:29:35;8.47;;;5.60;;
7334;SDS011;3708;42.632;23.378;2023-08-06T02:32:03;5.70;;;5.10;;
7334;SDS011;3708;42.632;23.378;2023-08-06T02:34:30;6.07;;;4.83;;
7334;SDS011;3708;42.632;23.378;2023-08-06T02:36:57;5.33;;;4.67;;
7334;SDS011;3708;42.632;23.378;2023-08-06T02:39:24;5.60;;;4.43;;
7334;SDS011;3708;42.632;23.378;2023-08-06T02:41:50;4.67;;;4.20;;
7334;SDS011;3708;42.632;23.378;2023-08-06T02:44:19;5.57;;;3.97;;
7334;SDS011;3708;42.632;23.378;2023-08-06T02:46:46;5.90;;;4.77;;
7334;SDS011;3708;42.632;23.378;2023-08-06T02:49:12;7.07;;;5.17;;
7334;SDS011;3708;42.632;23.378;2023-08-06T02:51:39;6.07;;;4.27;;
7334;SDS011;3708;42.632;23.378;2023-08-06T02:54:07;6.33;;;4.47;;
7334;SDS011;3708;42.632;23.378;2023-08-06T02:56:34;7.30;;;4.70;;
7334;SDS011;3708;42.632;23.378;2023-08-06T02:59:01;4.73;;;3.87;;
7334;SDS011;3708;42.632;23.378;2023-08-06T03:01:29;4.87;;;4.33;;
7334;SDS011;3708;42.632;23.378;2023-08-06T03:03:56;4.50;;;4.10;;
7334;SDS011;3708;42.632;23.378;2023-08-06T03:06:23;8.10;;;4.57;;
7334;SDS011;3708;42.632;23.378;2023-08-06T03:08:50;6.10;;;4.20;;
7334;SDS011;3708;42.632;23.378;2023-08-06T03:11:17;4.90;;;3.90;;
7334;SDS011;3708;42.632;23.378;2023-08-06T03:13:43;6.60;;;4.27;;
7334;SDS011;3708;42.632;23.378;2023-08-06T03:16:10;5.73;;;3.80;;
7334;SDS011;3708;42.632;23.378;2023-08-06T03:18:39;4.63;;;4.03;;
7334;SDS011;3708;42.632;23.378;2023-08-06T03:21:06;5.77;;;3.57;;
7334;SDS011;3708;42.632;23.378;2023-08-06T03:23:33;8.27;;;3.73;;
7334;SDS011;3708;42.632;23.378;2023-08-06T03:26:00;5.43;;;4.37;;
7334;SDS011;3708;42.632;23.378;2023-08-06T03:28:27;4.10;;;3.70;;
7334;SDS011;3708;42.632;23.378;2023-08-06T03:30:58;4.77;;;3.63;;
7334;SDS011;3708;42.632;23.378;2023-08-06T03:33:25;4.77;;;4.10;;
7334;SDS011;3708;42.632;23.378;2023-08-06T03:35:53;3.93;;;3.53;;
7334;SDS011;3708;42.632;23.378;2023-08-06T03:38:20;5.70;;;3.60;;
7334;SDS011;3708;42.632;23.378;2023-08-06T03:40:48;4.30;;;3.77;;
7334;SDS011;3708;42.632;23.378;2023-08-06T03:43:15;5.93;;;3.93;;
7334;SDS011;3708;42.632;23.378;2023-08-06T03:45:42;6.30;;;4.60;;
7334;SDS011;3708;42.632;23.378;2023-08-06T03:48:09;4.73;;;3.70;;
7334;SDS011;3708;42.632;23.378;2023-08-06T03:50:35;4.50;;;4.07;;
7334;SDS011;3708;42.632;23.378;2023-08-06T03:53:04;5.03;;;3.53;;
7334;SDS011;3708;42.632;23.378;2023-08-06T03:55:31;5.33;;;3.90;;
7334;SDS011;3708;42.632;23.378;2023-08-06T03:57:58;4.83;;;3.77;;
7334;SDS011;3708;42.632;23.378;2023-08-06T04:00:25;5.30;;;4.30;;
7334;SDS011;3708;42.632;23.378;2023-08-06T04:02:52;4.67;;;3.80;;
7334;SDS011;3708;42.632;23.378;2023-08-06T04:05:18;7.20;;;4.17;;
7334;SDS011;3708;42.632;23.378;2023-08-06T04:07:45;6.80;;;4.30;;
7334;SDS011;3708;42.632;23.378;2023-08-06T04:10:15;4.10;;;3.70;;
7334;SDS011;3708;42.632;23.378;2023-08-06T04:12:41;5.57;;;3.67;;
7334;SDS011;3708;42.632;23.378;2023-08-06T04:15:08;5.63;;;3.33;;
7334;SDS011;3708;42.632;23.378;2023-08-06T04:17:35;8.27;;;3.80;;
7334;SDS011;3708;42.632;23.378;2023-08-06T04:20:02;6.30;;;3.63;;
7334;SDS011;3708;42.632;23.378;2023-08-06T04:22:30;4.53;;;4.13;;
7334;SDS011;3708;42.632;23.378;2023-08-06T04:24:56;7.30;;;3.70;;
7334;SDS011;3708;42.632;23.378;2023-08-06T04:27:25;5.97;;;3.70;;
7334;SDS011;3708;42.632;23.378;2023-08-06T04:29:51;3.67;;;3.30;;
7334;SDS011;3708;42.632;23.378;2023-08-06T04:32:18;5.03;;;3.40;;
7334;SDS011;3708;42.632;23.378;2023-08-06T04:34:45;4.50;;;3.67;;
7334;SDS011;3708;42.632;23.378;2023-08-06T04:37:13;3.93;;;3.57;;
7334;SDS011;3708;42.632;23.378;2023-08-06T04:39:39;4.27;;;3.83;;
7334;SDS011;3708;42.632;23.378;2023-08-06T04:42:06;6.57;;;4.13;;
7334;SDS011;3708;42.632;23.378;2023-08-06T04:44:35;5.77;;;4.20;;
7334;SDS011;3708;42.632;23.378;2023-08-06T04:47:01;4.80;;;4.30;;
7334;SDS011;3708;42.632;23.378;2023-08-06T04:49:28;6.13;;;3.83;;
7334;SDS011;3708;42.632;23.378;2023-08-06T04:51:55;6.50;;;5.10;;
7334;SDS011;3708;42.632;23.378;2023-08-06T04:54:22;4.30;;;3.87;;
7334;SDS011;3708;42.632;23.378;2023-08-06T04:56:49;6.60;;;4.30;;
7334;SDS011;3708;42.632;23.378;2023-08-06T04:59:16;6.27;;;4.30;;
7334;SDS011;3708;42.632;23.378;2023-08-06T05:01:44;4.90;;;4.30;;
7334;SDS011;3708;42.632;23.378;2023-08-06T05:04:12;5.63;;;4.00;;
7334;SDS011;3708;42.632;23.378;2023-08-06T05:06:39;4.73;;;3.73;;
7334;SDS011;3708;42.632;23.378;2023-08-06T05:09:06;5.77;;;3.97;;
7334;SDS011;3708;42.632;23.378;2023-08-06T05:11:33;5.03;;;4.53;;
7334;SDS011;3708;42.632;23.378;2023-08-06T05:14:00;3.93;;;3.53;;
7334;SDS011;3708;42.632;23.378;2023-08-06T05:16:26;5.13;;;4.20;;
7334;SDS011;3708;42.632;23.378;2023-08-06T05:18:55;11.47;;;5.10;;
7334;SDS011;3708;42.632;23.378;2023-08-06T05:21:22;9.93;;;5.17;;
7334;SDS011;3708;42.632;23.378;2023-08-06T05:23:48;6.00;;;5.37;;
7334;SDS011;3708;42.632;23.378;2023-08-06T05:26:15;9.30;;;4.83;;
7334;SDS011;3708;42.632;23.378;2023-08-06T05:28:44;8.70;;;7.63;;
7334;SDS011;3708;42.632;23.378;2023-08-06T05:31:11;7.70;;;6.90;;
7334;SDS011;3708;42.632;23.378;2023-08-06T05:33:38;7.53;;;6.73;;
7334;SDS011;3708;42.632;23.378;2023-08-06T05:36:06;8.53;;;7.17;;
7334;SDS011;3708;42.632;23.378;2023-08-06T05:38:33;9.77;;;7.57;;
7334;SDS011;3708;42.632;23.378;2023-08-06T05:41:01;7.20;;;6.50;;
7334;SDS011;3708;42.632;23.378;2023-08-06T05:43:28;7.00;;;6.13;;
7334;SDS011;3708;42.632;23.378;2023-08-06T05:45:55;6.93;;;6.17;;
7334;SDS011;3708;42.632;23.378;2023-08-06T05:48:22;7.77;;;5.63;;
7334;SDS011;3708;42.632;23.378;2023-08-06T05:50:50;6.30;;;5.47;;
7334;SDS011;3708;42.632;23.378;2023-08-06T05:53:19;6.55;;;5.82;;
7334;SDS011;3708;42.632;23.378;2023-08-06T05:55:47;5.63;;;5.00;;
7334;SDS011;3708;42.632;23.378;2023-08-06T05:58:13;5.93;;;5.32;;
7334;SDS011;3708;42.632;23.378;2023-08-06T06:00:40;6.32;;;5.30;;
7334;SDS011;3708;42.632;23.378;2023-08-06T06:03:07;5.88;;;5.13;;
7334;SDS011;3708;42.632;23.378;2023-08-06T06:05:34;8.50;;;6.55;;
7334;SDS011;3708;42.632;23.378;2023-08-06T06:08:03;9.02;;;6.10;;
7334;SDS011;3708;42.632;23.378;2023-08-06T06:10:31;9.40;;;7.95;;
7334;SDS011;3708;42.632;23.378;2023-08-06T06:12:58;9.48;;;7.82;;
7334;SDS011;3708;42.632;23.378;2023-08-06T06:15:25;7.25;;;6.55;;
7334;SDS011;3708;42.632;23.378;2023-08-06T06:17:52;8.35;;;6.88;;
7334;SDS011;3708;42.632;23.378;2023-08-06T06:20:19;9.00;;;7.32;;
7334;SDS011;3708;42.632;23.378;2023-08-06T06:22:46;9.05;;;7.75;;
7334;SDS011;3708;42.632;23.378;2023-08-06T06:25:12;7.97;;;7.13;;
7334;SDS011;3708;42.632;23.378;2023-08-06T06:27:41;10.13;;;7.40;;
7334;SDS011;3708;42.632;23.378;2023-08-06T06:30:08;8.88;;;7.97;;
7334;SDS011;3708;42.632;23.378;2023-08-06T06:32:37;8.45;;;7.65;;
7334;SDS011;3708;42.632;23.378;2023-08-06T06:35:05;8.20;;;7.38;;
7334;SDS011;3708;42.632;23.378;2023-08-06T06:37:32;10.32;;;7.40;;
7334;SDS011;3708;42.632;23.378;2023-08-06T06:39:59;8.40;;;7.03;;
7334;SDS011;3708;42.632;23.378;2023-08-06T06:42:26;10.52;;;6.35;;
7334;SDS011;3708;42.632;23.378;2023-08-06T06:44:55;9.73;;;4.78;;
7334;SDS011;3708;42.632;23.378;2023-08-06T06:47:22;6.53;;;4.80;;
7334;SDS011;3708;42.632;23.378;2023-08-06T06:49:49;6.22;;;3.97;;
7334;SDS011;3708;42.632;23.378;2023-08-06T06:52:16;5.28;;;3.50;;
7334;SDS011;3708;42.632;23.378;2023-08-06T06:54:43;3.30;;;3.00;;
7334;SDS011;3708;42.632;23.378;2023-08-06T06:57:10;4.18;;;3.63;;
7334;SDS011;3708;42.632;23.378;2023-08-06T06:59:38;6.10;;;3.28;;
7334;SDS011;3708;42.632;23.378;2023-08-06T07:02:08;3.87;;;3.47;;
7334;SDS011;3708;42.632;23.378;2023-08-06T07:04:34;5.00;;;3.20;;
7334;SDS011;3708;42.632;23.378;2023-08-06T07:07:01;5.43;;;3.80;;
7334;SDS011;3708;42.632;23.378;2023-08-06T07:09:28;6.97;;;3.90;;
7334;SDS011;3708;42.632;23.378;2023-08-06T07:11:55;5.77;;;5.10;;
7334;SDS011;3708;42.632;23.378;2023-08-06T07:14:22;9.70;;;6.40;;
7334;SDS011;3708;42.632;23.378;2023-08-06T07:16:51;7.50;;;6.30;;
7334;SDS011;3708;42.632;23.378;2023-08-06T07:19:20;6.90;;;6.18;;
7334;SDS011;3708;42.632;23.378;2023-08-06T07:21:47;7.83;;;5.70;;
7334;SDS011;3708;42.632;23.378;2023-08-06T07:24:14;6.20;;;3.87;;
7334;SDS011;3708;42.632;23.378;2023-08-06T07:26:40;4.40;;;4.00;;
7334;SDS011;3708;42.632;23.378;2023-08-06T07:29:07;4.60;;;3.70;;
7334;SDS011;3708;42.632;23.378;2023-08-06T07:31:34;4.45;;;4.05;;
7334;SDS011;3708;42.632;23.378;2023-08-06T07:34:01;4.60;;;3.88;;
7334;SDS011;3708;42.632;23.378;2023-08-06T07:36:30;3.97;;;3.58;;
7334;SDS011;3708;42.632;23.378;2023-08-06T07:38:57;5.30;;;3.85;;
7334;SDS011;3708;42.632;23.378;2023-08-06T07:41:24;5.18;;;3.88;;
7334;SDS011;3708;42.632;23.378;2023-08-06T07:43:50;4.05;;;3.65;;
7334;SDS011;3708;42.632;23.378;2023-08-06T07:46:17;4.20;;;3.15;;
7334;SDS011;3708;42.632;23.378;2023-08-06T07:48:44;3.97;;;2.85;;
7334;SDS011;3708;42.632;23.378;2023-08-06T07:51:11;3.08;;;2.75;;
7334;SDS011;3708;42.632;23.378;2023-08-06T07:53:39;3.03;;;2.50;;
7334;SDS011;3708;42.632;23.378;2023-08-06T07:56:06;3.35;;;3.05;;
7334;SDS011;3708;42.632;23.378;2023-08-06T07:58:34;5.00;;;2.67;;
7334;SDS011;3708;42.632;23.378;2023-08-06T08:01:01;3.97;;;3.58;;
7334;SDS011;3708;42.632;23.378;2023-08-06T08:03:28;3.78;;;3.40;;
7334;SDS011;3708;42.632;23.378;2023-08-06T08:05:55;3.95;;;3.25;;
7334;SDS011;3708;42.632;23.378;2023-08-06T08:08:23;3.55;;;2.92;;
7334;SDS011;3708;42.632;23.378;2023-08-06T08:10:52;4.97;;;3.40;;
7334;SDS011;3708;42.632;23.378;2023-08-06T08:13:21;6.30;;;3.17;;
7334;SDS011;3708;42.632;23.378;2023-08-06T08:15:48;3.55;;;3.25;;
7334;SDS011;3708;42.632;23.378;2023-08-06T08:18:14;4.07;;;3.35;;
7334;SDS011;3708;42.632;23.378;2023-08-06T08:20:41;4.68;;;3.10;;
7334;SDS011;3708;42.632;23.378;2023-08-06T08:23:09;3.45;;;3.15;;
7334;SDS011;3708;42.632;23.378;2023-08-06T08:25:36;3.22;;;2.92;;
7334;SDS011;3708;42.632;23.378;2023-08-06T08:28:04;4.40;;;2.88;;
7334;SDS011;3708;42.632;23.378;2023-08-06T08:30:31;5.60;;;3.72;;
7334;SDS011;3708;42.632;23.378;2023-08-06T08:32:58;5.18;;;3.55;;
7334;SDS011;3708;42.632;23.378;2023-08-06T08:35:24;4.35;;;3.30;;
7334;SDS011;3708;42.632;23.378;2023-08-06T08:37:51;4.22;;;3.50;;
7334;SDS011;3708;42.632;23.378;2023-08-06T08:40:19;5.45;;;3.60;;
7334;SDS011;3708;42.632;23.378;2023-08-06T08:42:51;5.28;;;3.78;;
7334;SDS011;3708;42.632;23.378;2023-08-06T08:45:19;3.63;;;3.33;;
7334;SDS011;3708;42.632;23.378;2023-08-06T08:47:48;5.63;;;3.47;;
7334;SDS011;3708;42.632;23.378;2023-08-06T08:50:15;6.60;;;3.70;;
7334;SDS011;3708;42.632;23.378;2023-08-06T08:52:45;5.38;;;3.45;;
7334;SDS011;3708;42.632;23.378;2023-08-06T08:55:14;3.03;;;2.72;;
7334;SDS011;3708;42.632;23.378;2023-08-06T08:57:43;4.13;;;2.97;;
7334;SDS011;3708;42.632;23.378;2023-08-06T09:00:10;3.22;;;2.92;;
7334;SDS011;3708;42.632;23.378;2023-08-06T09:02:40;3.50;;;3.00;;
7334;SDS011;3708;42.632;23.378;2023-08-06T09:05:09;5.28;;;3.38;;
7334;SDS011;3708;42.632;23.378;2023-08-06T09:07:41;3.50;;;3.20;;
7334;SDS011;3708;42.632;23.378;2023-08-06T09:10:10;6.53;;;3.60;;
7334;SDS011;3708;42.632;23.378;2023-08-06T09:12:38;4.57;;;3.40;;
7334;SDS011;3708;42.632;23.378;2023-08-06T09:15:06;4.00;;;3.10;;
7334;SDS011;3708;42.632;23.378;2023-08-06T09:17:35;4.25;;;3.40;;
7334;SDS011;3708;42.632;23.378;2023-08-06T09:20:12;3.35;;;3.05;;
7334;SDS011;3708;42.632;23.378;2023-08-06T09:22:41;3.25;;;2.90;;
7334;SDS011;3708;42.632;23.378;2023-08-06T09:25:09;3.75;;;2.65;;
7334;SDS011;3708;42.632;23.378;2023-08-06T09:27:39;3.63;;;2.83;;
7334;SDS011;3708;42.632;23.378;2023-08-06T09:30:19;4.85;;;2.85;;
7334;SDS011;3708;42.632;23.378;2023-08-06T09:32:58;3.13;;;2.83;;
7334;SDS011;3708;42.632;23.378;2023-08-06T09:35:27;3.00;;;2.50;;
7334;SDS011;3708;42.632;23.378;2023-08-06T09:38:05;4.25;;;3.58;;
7334;SDS011;3708;42.632;23.378;2023-08-06T09:40:33;4.20;;;2.55;;
7334;SDS011;3708;42.632;23.378;2023-08-06T09:43:01;4.05;;;2.88;;
7334;SDS011;3708;42.632;23.378;2023-08-06T09:45:31;2.80;;;2.53;;
7334;SDS011;3708;42.632;23.378;2023-08-06T09:47:59;4.43;;;2.60;;
7334;SDS011;3708;42.632;23.378;2023-08-06T09:50:30;4.20;;;2.63;;
7334;SDS011;3708;42.632;23.378;2023-08-06T09:52:58;3.03;;;2.53;;
7334;SDS011;3708;42.632;23.378;2023-08-06T09:55:25;3.65;;;2.38;;
7334;SDS011;3708;42.632;23.378;2023-08-06T09:57:53;3.30;;;2.40;;
7334;SDS011;3708;42.632;23.378;2023-08-06T10:00:20;3.45;;;2.50;;
7334;SDS011;3708;42.632;23.378;2023-08-06T10:02:48;3.03;;;2.72;;
7334;SDS011;3708;42.632;23.378;2023-08-06T10:05:20;3.30;;;2.58;;
7334;SDS011;3708;42.632;23.378;2023-08-06T10:07:55;4.43;;;3.17;;
7334;SDS011;3708;42.632;23.378;2023-08-06T10:10:23;4.18;;;2.50;;
7334;SDS011;3708;42.632;23.378;2023-08-06T10:12:54;2.90;;;2.55;;
7334;SDS011;3708;42.632;23.378;2023-08-06T10:15:23;4.00;;;2.50;;
7334;SDS011;3708;42.632;23.378;2023-08-06T10:17:52;3.60;;;2.63;;
7334;SDS011;3708;42.632;23.378;2023-08-06T10:20:23;2.88;;;2.33;;
7334;SDS011;3708;42.632;23.378;2023-08-06T10:23:00;2.90;;;2.60;;
7334;SDS011;3708;42.632;23.378;2023-08-06T10:25:30;2.65;;;2.40;;
7334;SDS011;3708;42.632;23.378;2023-08-06T10:27:58;3.33;;;2.80;;
7334;SDS011;3708;42.632;23.378;2023-08-06T10:30:26;4.63;;;2.95;;
7334;SDS011;3708;42.632;23.378;2023-08-06T10:32:55;3.25;;;2.92;;
7334;SDS011;3708;42.632;23.378;2023-08-06T10:35:29;2.70;;;2.20;;
7334;SDS011;3708;42.632;23.378;2023-08-06T10:37:59;3.20;;;2.90;;
7334;SDS011;3708;42.632;23.378;2023-08-06T10:40:30;3.10;;;2.80;;
7334;SDS011;3708;42.632;23.378;2023-08-06T10:42:58;2.72;;;2.53;;
7334;SDS011;3708;42.632;23.378;2023-08-06T10:45:26;3.15;;;2.78;;
7334;SDS011;3708;42.632;23.378;2023-08-06T10:47:54;2.65;;;2.38;;
7334;SDS011;3708;42.632;23.378;2023-08-06T10:50:22;4.50;;;2.40;;
7334;SDS011;3708;42.632;23.378;2023-08-06T10:52:49;2.15;;;1.95;;
7334;SDS011;3708;42.632;23.378;2023-08-06T10:55:23;3.00;;;2.35;;
7334;SDS011;3708;42.632;23.378;2023-08-06T10:57:51;3.95;;;2.50;;
7334;SDS011;3708;42.632;23.378;2023-08-06T11:00:18;3.13;;;2.75;;
7334;SDS011;3708;42.632;23.378;2023-08-06T11:02:47;4.20;;;2.90;;
7334;SDS011;3708;42.632;23.378;2023-08-06T11:05:14;4.13;;;2.85;;
7334;SDS011;3708;42.632;23.378;2023-08-06T11:07:42;5.63;;;3.50;;
7334;SDS011;3708;42.632;23.378;2023-08-06T11:10:09;3.67;;;3.00;;
7334;SDS011;3708;42.632;23.378;2023-08-06T11:12:39;2.90;;;2.35;;
7334;SDS011;3708;42.632;23.378;2023-08-06T11:15:06;5.43;;;2.80;;
7334;SDS011;3708;42.632;23.378;2023-08-06T11:17:34;4.03;;;2.40;;
7334;SDS011;3708;42.632;23.378;2023-08-06T11:20:02;3.95;;;2.63;;
7334;SDS011;3708;42.632;23.378;2023-08-06T11:22:30;2.47;;;2.28;;
7334;SDS011;3708;42.632;23.378;2023-08-06T11:24:57;3.30;;;2.83;;
7334;SDS011;3708;42.632;23.378;2023-08-06T11:27:26;2.70;;;2.50;;
7334;SDS011;3708;42.632;23.378;2023-08-06T11:29:54;3.08;;;2.70;;
7334;SDS011;3708;42.632;23.378;2023-08-06T11:32:22;2.72;;;2.42;;
7334;SDS011;3708;42.632;23.378;2023-08-06T11:34:48;2.80;;;2.38;;
7334;SDS011;3708;42.632;23.378;2023-08-06T11:37:15;3.40;;;2.40;;
7334;SDS011;3708;42.632;23.378;2023-08-06T11:39:45;2.92;;;2.28;;
7334;SDS011;3708;42.632;23.378;2023-08-06T11:42:14;2.83;;;2.20;;
7334;SDS011;3708;42.632;23.378;2023-08-06T11:44:41;2.58;;;2.38;;
7334;SDS011;3708;42.632;23.378;2023-08-06T11:47:13;3.40;;;2.30;;
7334;SDS011;3708;42.632;23.378;2023-08-06T11:49:42;2.90;;;2.60;;
7334;SDS011;3708;42.632;23.378;2023-08-06T11:52:13;5.30;;;2.92;;
7334;SDS011;3708;42.632;23.378;2023-08-06T11:54:43;3.28;;;2.83;;
7334;SDS011;3708;42.632;23.378;2023-08-06T11:57:10;5.43;;;3.17;;
7334;SDS011;3708;42.632;23.378;2023-08-06T11:59:37;3.33;;;2.70;;
7334;SDS011;3708;42.632;23.378;2023-08-06T12:02:06;3.78;;;2.80;;
7334;SDS011;3708;42.632;23.378;2023-08-06T12:07:29;4.93;;;3.17;;
7334;SDS011;3708;42.632;23.378;2023-08-06T12:09:57;3.35;;;2.95;;
7334;SDS011;3708;42.632;23.378;2023-08-06T12:12:24;4.00;;;3.10;;
7334;SDS011;3708;42.632;23.378;2023-08-06T12:14:51;3.33;;;3.00;;
7334;SDS011;3708;42.632;23.378;2023-08-06T12:17:18;3.72;;;3.00;;
7334;SDS011;3708;42.632;23.378;2023-08-06T12:19:45;5.88;;;3.13;;
7334;SDS011;3708;42.632;23.378;2023-08-06T12:22:14;3.13;;;2.80;;
7334;SDS011;3708;42.632;23.378;2023-08-06T12:24:41;3.60;;;3.10;;
7334;SDS011;3708;42.632;23.378;2023-08-06T12:27:09;3.60;;;3.15;;
7334;SDS011;3708;42.632;23.378;2023-08-06T12:29:36;4.10;;;3.70;;
7334;SDS011;3708;42.632;23.378;2023-08-06T12:32:04;4.50;;;3.50;;
7334;SDS011;3708;42.632;23.378;2023-08-06T12:34:31;6.30;;;3.97;;
7334;SDS011;3708;42.632;23.378;2023-08-06T12:36:58;5.00;;;3.78;;
7334;SDS011;3708;42.632;23.378;2023-08-06T12:39:26;5.43;;;3.85;;
7334;SDS011;3708;42.632;23.378;2023-08-06T12:41:54;4.97;;;3.70;;
7334;SDS011;3708;42.632;23.378;2023-08-06T12:44:22;6.28;;;4.53;;
7334;SDS011;3708;42.632;23.378;2023-08-06T12:46:49;4.43;;;3.78;;
7334;SDS011;3708;42.632;23.378;2023-08-06T12:49:16;4.90;;;3.70;;
7334;SDS011;3708;42.632;23.378;2023-08-06T12:51:43;5.18;;;4.15;;
7334;SDS011;3708;42.632;23.378;2023-08-06T12:54:10;6.20;;;4.22;;
7334;SDS011;3708;42.632;23.378;2023-08-06T12:56:38;5.57;;;4.20;;
7334;SDS011;3708;42.632;23.378;2023-08-06T12:59:05;5.97;;;4.32;;
7334;SDS011;3708;42.632;23.378;2023-08-06T13:01:32;5.78;;;3.80;;
7334;SDS011;3708;42.632;23.378;2023-08-06T13:03:59;4.80;;;3.70;;
7334;SDS011;3708;42.632;23.378;2023-08-06T13:06:26;4.00;;;3.70;;
7334;SDS011;3708;42.632;23.378;2023-08-06T13:08:53;4.20;;;3.80;;
7334;SDS011;3708;42.632;23.378;2023-08-06T13:11:20;4.13;;;3.72;;
7334;SDS011;3708;42.632;23.378;2023-08-06T13:13:48;6.18;;;4.03;;
7334;SDS011;3708;42.632;23.378;2023-08-06T13:16:15;4.47;;;3.47;;
7334;SDS011;3708;42.632;23.378;2023-08-06T13:18:42;5.60;;;3.80;;
7334;SDS011;3708;42.632;23.378;2023-08-06T13:21:09;4.85;;;3.10;;
7334;SDS011;3708;42.632;23.378;2023-08-06T13:23:35;4.43;;;3.90;;
7334;SDS011;3708;42.632;23.378;2023-08-06T13:26:02;3.72;;;3.40;;
7334;SDS011;3708;42.632;23.378;2023-08-06T13:28:29;4.32;;;3.75;;
7334;SDS011;3708;42.632;23.378;2023-08-06T13:30:57;5.68;;;4.03;;
7334;SDS011;3708;42.632;23.378;2023-08-06T13:33:24;4.13;;;3.63;;
7334;SDS011;3708;42.632;23.378;2023-08-06T13:35:52;4.97;;;3.83;;
7334;SDS011;3708;42.632;23.378;2023-08-06T13:38:18;4.75;;;3.80;;
7334;SDS011;3708;42.632;23.378;2023-08-06T13:40:45;6.78;;;4.40;;
7334;SDS011;3708;42.632;23.378;2023-08-06T13:43:12;5.10;;;3.55;;
7334;SDS011;3708;42.632;23.378;2023-08-06T13:45:41;5.95;;;3.92;;
7334;SDS011;3708;42.632;23.378;2023-08-06T13:48:09;4.78;;;4.25;;
7334;SDS011;3708;42.632;23.378;2023-08-06T13:50:36;6.00;;;4.38;;
7334;SDS011;3708;42.632;23.378;2023-08-06T13:53:03;4.60;;;3.75;;
7334;SDS011;3708;42.632;23.378;2023-08-06T13:55:30;4.38;;;3.97;;
7334;SDS011;3708;42.632;23.378;2023-08-06T13:57:57;6.25;;;3.78;;
7334;SDS011;3708;42.632;23.378;2023-08-06T14:00:23;5.95;;;3.70;;
7334;SDS011;3708;42.632;23.378;2023-08-06T14:02:50;4.07;;;3.67;;
7334;SDS011;3708;42.632;23.378;2023-08-06T14:05:19;5.32;;;3.83;;
7334;SDS011;3708;42.632;23.378;2023-08-06T14:07:45;4.22;;;3.45;;
7334;SDS011;3708;42.632;23.378;2023-08-06T14:10:12;6.90;;;3.72;;
7334;SDS011;3708;42.632;23.378;2023-08-06T14:12:39;3.20;;;2.90;;
7334;SDS011;3708;42.632;23.378;2023-08-06T14:15:07;4.55;;;3.35;;
7334;SDS011;3708;42.632;23.378;2023-08-06T14:17:34;6.22;;;3.58;;
7334;SDS011;3708;42.632;23.378;2023-08-06T14:20:01;4.93;;;3.65;;
7334;SDS011;3708;42.632;23.378;2023-08-06T14:22:31;4.05;;;3.30;;
7334;SDS011;3708;42.632;23.378;2023-08-06T14:24:57;3.40;;;3.10;;
7334;SDS011;3708;42.632;23.378;2023-08-06T14:27:24;4.20;;;3.15;;
7334;SDS011;3708;42.632;23.378;2023-08-06T14:29:51;5.50;;;3.25;;
7334;SDS011;3708;42.632;23.378;2023-08-06T14:32:18;6.25;;;3.53;;
7334;SDS011;3708;42.632;23.378;2023-08-06T14:34:45;4.43;;;3.67;;
7334;SDS011;3708;42.632;23.378;2023-08-06T14:37:11;3.33;;;3.03;;
7334;SDS011;3708;42.632;23.378;2023-08-06T14:39:40;3.25;;;2.53;;
7334;SDS011;3708;42.632;23.378;2023-08-06T14:42:07;3.85;;;2.70;;
7334;SDS011;3708;42.632;23.378;2023-08-06T14:44:33;3.63;;;3.00;;
7334;SDS011;3708;42.632;23.378;2023-08-06T14:47:00;3.97;;;2.80;;
7334;SDS011;3708;42.632;23.378;2023-08-06T14:49:27;3.75;;;2.75;;
7334;SDS011;3708;42.632;23.378;2023-08-06T14:51:54;5.13;;;3.38;;
7334;SDS011;3708;42.632;23.378;2023-08-06T14:54:24;3.58;;;3.28;;
7334;SDS011;3708;42.632;23.378;2023-08-06T14:56:52;4.20;;;3.28;;
7334;SDS011;3708;42.632;23.378;2023-08-06T14:59:19;5.45;;;3.33;;
7334;SDS011;3708;42.632;23.378;2023-08-06T15:01:46;3.22;;;2.92;;
7334;SDS011;3708;42.632;23.378;2023-08-06T15:04:13;4.93;;;3.70;;
7334;SDS011;3708;42.632;23.378;2023-08-06T15:06:39;4.15;;;3.30;;